Time;durP1;ratioP1;P1;durP2;ratioP2;P2;SDS_P1;SDS_P2;PMS_P1;PMS_P2;Temp;Humidity;BMP_temperature;BMP_pressure;BME280_temperature;BME280_humidity;BME280_pressure;Samples;Min_cycle;Max_cycle;Signal;HPM_P1;HPM_P2
2022/04/14 00:02:12;;;;;;;;;;;;;;;5.14;58.40;100674.34;4966810;28;1912;-96
2022/04/14 00:04:39;;;;;;;;;;;;;;;5.14;58.39;100671.66;4968909;28;1286;-96
2022/04/14 00:07:05;;;;;;;;;;;;;;;5.15;58.38;100676.03;4975880;28;1197;-96
2022/04/14 00:09:32;;;;;;;;;;;;;;;5.14;58.15;100673.50;4974320;28;1269;-96
2022/04/14 00:11:58;;;;;;;;;;;;;;;5.12;58.17;100660.38;4961931;28;1918;-96
2022/04/14 00:14:24;;;;;;;;;;;;;;;5.13;58.25;100661.19;4971642;28;2173;-96
2022/04/14 00:16:51;;;;;;;;;;;;;;;5.14;58.30;100662.84;4970839;28;2009;-96
2022/04/14 00:19:17;;;;;;;;;;;;;;;5.13;58.51;100658.53;4945752;29;1325;-96
2022/04/14 00:21:44;;;;;;;;;;;;;;;5.13;58.42;100655.84;4973283;28;1657;-96
2022/04/14 00:24:10;;;;;;;;;;;;;;;5.12;58.31;100657.69;4951749;28;1949;-96
2022/04/14 00:26:37;;;;;;;;;;;;;;;5.12;58.31;100663.03;4969163;28;1279;-96
2022/04/14 00:29:03;;;;;;;;;;;;;;;5.12;58.29;100664.88;4974220;28;1365;-96
2022/04/14 00:31:30;;;;;;;;;;;;;;;5.11;58.21;100655.19;4963609;28;2120;-96
2022/04/14 00:33:56;;;;;;;;;;;;;;;5.11;58.29;100663.19;4957799;28;2308;-96
2022/04/14 00:36:22;;;;;;;;;;;;;;;5.11;58.40;100658.69;4968722;28;1980;-96
2022/04/14 00:38:49;;;;;;;;;;;;;;;5.11;58.19;100665.88;4958345;28;2051;-96
2022/04/14 00:41:15;;;;;;;;;;;;;;;5.10;58.23;100664.22;4973196;28;1260;-96
2022/04/14 00:43:43;;;;;;;;;;;;;;;5.11;58.20;100671.22;4972512;28;1944;-96
2022/04/14 00:46:09;;;;;;;;;;;;;;;5.10;58.27;100669.56;4965549;28;2046;-96
2022/04/14 00:48:35;;;;;;;;;;;;;;;5.09;58.30;100666.06;4945481;29;1219;-96
2022/04/14 00:51:03;;;;;;;;;;;;;;;5.09;58.27;100665.22;4969339;28;2257;-96
2022/04/14 00:53:30;;;;;;;;;;;;;;;5.08;58.28;100661.72;4969812;28;2020;-96
2022/04/14 00:55:57;;;;;;;;;;;;;;;5.10;58.25;100657.03;4973659;28;1276;-96
2022/04/14 00:58:23;;;;;;;;;;;;;;;5.09;58.30;100654.53;4964741;28;2088;-96
2022/04/14 01:00:50;;;;;;;;;;;;;;;5.09;58.18;100651.88;4953499;29;2076;-96
2022/04/14 01:03:17;;;;;;;;;;;;;;;5.08;58.27;100647.53;4971945;28;1279;-96
2022/04/14 01:05:44;;;;;;;;;;;;;;;5.07;58.25;100649.38;4972777;28;1294;-96
2022/04/14 01:08:10;;;;;;;;;;;;;;;5.06;58.33;100646.88;4975750;28;1268;-96
2022/04/14 01:10:37;;;;;;;;;;;;;;;5.07;58.32;100646.72;4971861;28;2082;-96
2022/04/14 01:13:03;;;;;;;;;;;;;;;5.07;58.33;100643.22;4975456;28;1914;-96
2022/04/14 01:15:30;;;;;;;;;;;;;;;5.06;58.10;100645.06;4969114;28;2000;-96
2022/04/14 01:17:56;;;;;;;;;;;;;;;5.05;58.29;100638.06;4963877;28;2023;-96
2022/04/14 01:20:22;;;;;;;;;;;;;;;5.05;58.25;100635.38;4965607;28;2181;-96
2022/04/14 01:22:49;;;;;;;;;;;;;;;5.05;58.10;100635.38;4972852;28;1287;-96
2022/04/14 01:25:15;;;;;;;;;;;;;;;5.06;58.27;100641.56;4972216;28;1437;-96
2022/04/14 01:27:42;;;;;;;;;;;;;;;5.04;58.16;100631.06;4963492;28;4891;-96
2022/04/14 01:30:08;;;;;;;;;;;;;;;5.05;58.34;100634.56;4950558;28;4757;-96
2022/04/14 01:32:34;;;;;;;;;;;;;;;5.05;58.31;100634.56;4947711;29;2445;-96
2022/04/14 01:35:01;;;;;;;;;;;;;;;5.03;58.26;100625.91;4947013;28;1187;-96
2022/04/14 01:37:27;;;;;;;;;;;;;;;5.02;58.25;100619.72;4950625;29;2221;-96
2022/04/14 01:39:54;;;;;;;;;;;;;;;5.03;58.34;100624.09;4956448;29;2000;-96
2022/04/14 01:42:20;;;;;;;;;;;;;;;5.03;58.28;100626.75;4961143;28;2240;-96
2022/04/14 01:44:48;;;;;;;;;;;;;;;5.01;58.36;100626.91;4964791;28;2131;-95
2022/04/14 01:47:14;;;;;;;;;;;;;;;5.01;58.26;100629.59;4948063;29;2167;-96
2022/04/14 01:49:41;;;;;;;;;;;;;;;5.04;58.30;100640.91;4969397;28;2233;-96
2022/04/14 01:52:07;;;;;;;;;;;;;;;5.02;58.31;100635.75;4961018;28;1952;-96
2022/04/14 01:54:34;;;;;;;;;;;;;;;5.02;58.32;100633.09;4959278;28;2017;-96
2022/04/14 01:57:00;;;;;;;;;;;;;;;5.01;58.16;100634.94;4937076;29;2850;-96
2022/04/14 01:59:26;;;;;;;;;;;;;;;5.01;58.23;100637.59;4950400;29;1874;-96
2022/04/14 02:01:53;;;;;;;;;;;;;;;5.01;58.29;100636.78;4947295;29;2042;-96
2022/04/14 02:04:19;;;;;;;;;;;;;;;5.00;58.11;100635.13;4949420;29;2063;-96
2022/04/14 02:06:46;;;;;;;;;;;;;;;4.99;58.26;100638.78;4968268;28;2082;-96
2022/04/14 02:09:12;;;;;;;;;;;;;;;4.98;58.35;100629.94;4975751;28;1289;-96
2022/04/14 02:11:38;;;;;;;;;;;;;;;4.99;58.39;100625.44;4959881;28;1906;-96
2022/04/14 02:14:05;;;;;;;;;;;;;;;4.99;58.28;100622.78;4974500;28;1208;-96
2022/04/14 02:16:31;;;;;;;;;;;;;;;4.99;58.30;100622.78;4958739;28;2020;-96
2022/04/14 02:18:58;;;;;;;;;;;;;;;4.97;58.23;100622.97;4954766;28;2064;-96
2022/04/14 02:21:24;;;;;;;;;;;;;;;4.97;58.26;100617.63;4971805;28;1195;-96
2022/04/14 02:23:51;;;;;;;;;;;;;;;4.98;58.27;100623.78;4972230;28;1915;-96
2022/04/14 02:26:17;;;;;;;;;;;;;;;4.97;58.20;100619.44;4938211;29;2230;-95
2022/04/14 02:28:43;;;;;;;;;;;;;;;4.97;58.36;100622.97;4961856;28;2113;-96
2022/04/14 02:31:10;;;;;;;;;;;;;;;4.96;58.25;100618.63;4965142;28;1909;-96
2022/04/14 02:33:36;;;;;;;;;;;;;;;4.95;58.26;100621.47;4964332;28;1899;-96
2022/04/14 02:36:03;;;;;;;;;;;;;;;4.95;58.34;100627.66;4967600;28;2250;-96
2022/04/14 02:38:29;;;;;;;;;;;;;;;4.94;58.30;100631.34;4961416;28;2205;-96
2022/04/14 02:40:55;;;;;;;;;;;;;;;4.95;58.25;100635.66;4971046;28;1947;-96
2022/04/14 02:43:22;;;;;;;;;;;;;;;4.94;58.35;100633.16;4961053;28;1311;-96
2022/04/14 02:45:48;;;;;;;;;;;;;;;4.94;58.31;100628.66;4945796;28;2034;-96
2022/04/14 02:48:15;;;;;;;;;;;;;;;4.95;58.20;100632.16;4922077;29;1571;-96
2022/04/14 02:50:43;;;;;;;;;;;;;;;4.96;58.21;100631.13;4936875;29;1970;-96
2022/04/14 02:53:09;;;;;;;;;;;;;;;4.94;58.31;100633.16;4936898;28;1978;-96
2022/04/14 02:55:36;;;;;;;;;;;;;;;4.93;58.37;100631.50;4962423;28;2318;-96
2022/04/14 02:58:02;;;;;;;;;;;;;;;4.94;58.26;100634.00;4962989;28;2104;-96
2022/04/14 03:00:28;;;;;;;;;;;;;;;4.93;58.29;100631.50;4970691;28;2177;-96
2022/04/14 03:02:55;;;;;;;;;;;;;;;4.94;58.29;100630.47;4966532;28;1922;-96
2022/04/14 03:05:21;;;;;;;;;;;;;;;4.94;58.23;100627.81;4960922;28;2078;-96
2022/04/14 03:07:47;;;;;;;;;;;;;;;4.93;58.13;100618.97;4962707;28;1993;-96
2022/04/14 03:10:14;;;;;;;;;;;;;;;4.93;58.22;100612.81;4941701;28;1248;-96
2022/04/14 03:12:41;;;;;;;;;;;;;;;4.93;58.14;100615.50;4974803;28;1973;-96
2022/04/14 03:15:07;;;;;;;;;;;;;;;4.93;58.04;100618.16;4970682;28;2204;-96
2022/04/14 03:17:33;;;;;;;;;;;;;;;4.91;58.18;100612.16;4941348;29;2146;-96
2022/04/14 03:20:00;;;;;;;;;;;;;;;4.91;58.18;100605.00;4957592;28;1199;-96
2022/04/14 03:22:26;;;;;;;;;;;;;;;4.90;58.38;100607.84;4959957;28;1881;-96
2022/04/14 03:24:53;;;;;;;;;;;;;;;4.90;58.39;100602.50;4952629;29;2119;-96
2022/04/14 03:27:19;;;;;;;;;;;;;;;4.89;58.36;100600.84;4951757;28;1294;-96
2022/04/14 03:29:45;;;;;;;;;;;;;;;4.90;58.23;100598.00;4958426;28;1447;-96
2022/04/14 03:32:12;;;;;;;;;;;;;;;4.91;58.13;100601.47;4964562;28;1977;-96
2022/04/14 03:34:38;;;;;;;;;;;;;;;4.90;58.32;100599.84;4951566;29;1281;-96
2022/04/14 03:37:04;;;;;;;;;;;;;;;4.89;58.23;100598.19;4937236;29;2026;-96
2022/04/14 03:39:31;;;;;;;;;;;;;;;4.88;58.25;100600.03;4948288;29;1243;-96
2022/04/14 03:41:57;;;;;;;;;;;;;;;4.89;58.27;100599.00;4958515;29;1338;-96
2022/04/14 03:44:24;;;;;;;;;;;;;;;4.88;58.28;100596.50;4954796;29;2032;-96
2022/04/14 03:46:50;;;;;;;;;;;;;;;4.88;58.25;100613.38;4951369;29;1869;-96
2022/04/14 03:49:16;;;;;;;;;;;;;;;4.88;58.25;100610.72;4944238;29;1353;-96
2022/04/14 03:51:43;;;;;;;;;;;;;;;4.89;58.36;100612.34;4955418;29;1906;-96
2022/04/14 03:54:09;;;;;;;;;;;;;;;4.89;58.12;100611.53;4933644;29;2149;-95
2022/04/14 03:56:36;;;;;;;;;;;;;;;4.88;58.35;100610.72;4938307;29;1202;-96
2022/04/14 03:59:02;;;;;;;;;;;;;;;4.87;58.22;100619.72;4953939;28;4832;-96
2022/04/14 04:01:28;;;;;;;;;;;;;;;4.88;58.32;100623.19;4939387;29;1949;-96
2022/04/14 04:03:55;;;;;;;;;;;;;;;4.87;58.15;100618.88;4945616;29;4020;-95
2022/04/14 04:06:21;;;;;;;;;;;;;;;4.86;58.11;100619.91;4957862;29;1245;-95
2022/04/14 04:08:48;;;;;;;;;;;;;;;4.86;58.36;100620.72;4955794;29;1317;-96
2022/04/14 04:11:14;;;;;;;;;;;;;;;4.87;58.23;100622.38;4937757;28;1182;-96
2022/04/14 04:13:41;;;;;;;;;;;;;;;4.85;58.08;100623.56;4940315;29;2137;-96
2022/04/14 04:16:07;;;;;;;;;;;;;;;4.87;58.16;100618.88;4949470;28;4012;-96
2022/04/14 04:18:33;;;;;;;;;;;;;;;4.86;58.13;100626.06;4942495;29;2128;-96
2022/04/14 04:21:00;;;;;;;;;;;;;;;4.86;58.22;100626.06;4973632;28;2008;-96
2022/04/14 04:23:26;;;;;;;;;;;;;;;4.85;58.21;100619.03;4957055;29;2274;-96
2022/04/14 04:25:53;;;;;;;;;;;;;;;4.85;58.17;100624.38;4953714;29;1289;-96
2022/04/14 04:28:19;;;;;;;;;;;;;;;4.84;58.19;100622.72;4928734;29;3182;-96
2022/04/14 04:30:46;;;;;;;;;;;;;;;4.85;58.08;100626.22;4937632;29;2181;-96
2022/04/14 04:33:12;;;;;;;;;;;;;;;4.83;58.17;100615.75;4942917;29;2697;-96
2022/04/14 04:35:38;;;;;;;;;;;;;;;4.83;58.31;100620.25;4938063;29;1277;-96
2022/04/14 04:38:05;;;;;;;;;;;;;;;4.83;58.12;100613.09;4937644;29;1441;-96
2022/04/14 04:40:31;;;;;;;;;;;;;;;4.82;58.15;100614.06;4952368;29;2134;-96
2022/04/14 04:42:58;;;;;;;;;;;;;;;4.83;58.23;100617.59;4957734;28;2028;-96
2022/04/14 04:45:24;;;;;;;;;;;;;;;4.83;58.22;100618.41;4960161;28;2044;-96
2022/04/14 04:47:50;;;;;;;;;;;;;;;4.82;58.28;100614.06;4940066;29;1583;-96
2022/04/14 04:50:17;;;;;;;;;;;;;;;4.82;58.30;100618.59;4947618;29;1282;-96
2022/04/14 04:52:43;;;;;;;;;;;;;;;4.82;58.37;100616.75;4948290;29;2520;-96
2022/04/14 04:55:10;;;;;;;;;;;;;;;4.81;58.27;100620.44;4953243;29;2730;-96
2022/04/14 04:57:36;;;;;;;;;;;;;;;4.81;58.41;100622.28;4945822;29;2488;-96
2022/04/14 05:00:04;;;;;;;;;;;;;;;4.81;58.36;100614.28;4959038;28;3011;-96
2022/04/14 05:02:30;;;;;;;;;;;;;;;4.80;58.21;100618.78;4961498;28;2053;-96
2022/04/14 05:04:57;;;;;;;;;;;;;;;4.82;58.11;100623.91;4972870;28;1291;-96
2022/04/14 05:07:23;;;;;;;;;;;;;;;4.81;58.23;100625.75;4956298;29;1719;-96
2022/04/14 05:09:49;;;;;;;;;;;;;;;4.80;58.29;100626.78;4958464;28;4030;-96
2022/04/14 05:12:16;;;;;;;;;;;;;;;4.81;58.16;100628.44;4932310;29;4975;-96
2022/04/14 05:14:42;;;;;;;;;;;;;;;4.81;58.17;100631.09;4937210;29;4545;-96
2022/04/14 05:17:08;;;;;;;;;;;;;;;4.78;58.24;100636.81;4945337;29;1808;-96
2022/04/14 05:19:35;;;;;;;;;;;;;;;4.80;58.34;100639.31;4952234;28;1881;-95
2022/04/14 05:22:02;;;;;;;;;;;;;;;4.81;58.20;100640.94;4955926;29;2174;-96
2022/04/14 05:24:29;;;;;;;;;;;;;;;4.80;58.20;100644.66;4946124;29;1774;-96
2022/04/14 05:26:55;;;;;;;;;;;;;;;4.78;58.25;100645.63;4946444;29;1191;-96
2022/04/14 05:29:21;;;;;;;;;;;;;;;4.80;58.39;100644.66;4938838;28;1261;-96
2022/04/14 05:31:48;;;;;;;;;;;;;;;4.79;58.34;100643.78;4938384;29;2105;-96
2022/04/14 05:34:14;;;;;;;;;;;;;;;4.77;58.27;100643.97;4944486;29;1992;-95
2022/04/14 05:36:40;;;;;;;;;;;;;;;4.77;58.40;100638.66;4955987;29;1349;-96
2022/04/14 05:39:07;;;;;;;;;;;;;;;4.76;58.37;100647.66;4939022;29;2115;-96
2022/04/14 05:41:33;;;;;;;;;;;;;;;4.77;58.45;100649.31;4963307;28;1282;-96
2022/04/14 05:43:59;;;;;;;;;;;;;;;4.76;58.22;100647.66;4956423;29;1237;-96
2022/04/14 05:46:26;;;;;;;;;;;;;;;4.77;58.24;100653.84;4948704;29;4271;-96
2022/04/14 05:48:52;;;;;;;;;;;;;;;4.77;58.22;100653.84;4940435;29;5016;-96
2022/04/14 05:51:20;;;;;;;;;;;;;;;4.77;58.26;100656.50;4940576;29;4042;-96
2022/04/14 05:53:49;;;;;;;;;;;;;;;4.76;58.34;100657.50;4948479;29;1990;-96
2022/04/14 05:56:16;;;;;;;;;;;;;;;4.75;58.31;100662.00;4952583;29;1878;-96
2022/04/14 05:58:43;;;;;;;;;;;;;;;4.76;58.06;100662.81;4966433;28;2327;-96
2022/04/14 06:01:09;;;;;;;;;;;;;;;4.76;58.31;100666.34;4958114;28;1194;-96
2022/04/14 06:03:36;;;;;;;;;;;;;;;4.76;58.41;100665.50;4950307;28;2240;-95
2022/04/14 06:06:02;;;;;;;;;;;;;;;4.75;58.43;100664.66;4937210;29;1179;-95
2022/04/14 06:08:28;;;;;;;;;;;;;;;4.75;58.18;100664.66;4949273;29;2052;-95
2022/04/14 06:10:55;;;;;;;;;;;;;;;4.75;58.32;100664.66;4956132;29;1194;-95
2022/04/14 06:13:21;;;;;;;;;;;;;;;4.75;58.27;100666.50;4961176;29;1927;-95
2022/04/14 06:15:47;;;;;;;;;;;;;;;4.75;58.27;100666.50;4947438;29;3079;-96
2022/04/14 06:18:14;;;;;;;;;;;;;;;4.74;58.38;100665.69;4953887;29;2076;-95
2022/04/14 06:20:40;;;;;;;;;;;;;;;4.75;58.27;100667.34;4948420;29;2077;-96
2022/04/14 06:23:08;;;;;;;;;;;;;;;4.75;58.30;100671.84;4946572;29;2072;-95
2022/04/14 06:25:34;;;;;;;;;;;;;;;4.74;58.20;100668.34;4940540;29;1324;-96
2022/04/14 06:28:01;;;;;;;;;;;;;;;4.73;58.26;100672.00;4935452;29;2145;-95
2022/04/14 06:30:27;;;;;;;;;;;;;;;4.74;58.31;100667.53;4937483;29;1617;-95
2022/04/14 06:32:54;;;;;;;;;;;;;;;4.73;58.34;100666.69;4970884;28;1974;-95
2022/04/14 06:35:20;;;;;;;;;;;;;;;4.74;58.19;100670.19;4943463;29;1430;-95
2022/04/14 06:37:46;;;;;;;;;;;;;;;4.74;58.23;100668.34;4925173;29;2144;-95
2022/04/14 06:40:14;;;;;;;;;;;;;;;4.73;58.14;100674.69;4941635;29;1432;-95
2022/04/14 06:42:40;;;;;;;;;;;;;;;4.73;58.33;100674.69;4958875;28;1204;-95
2022/04/14 06:45:06;;;;;;;;;;;;;;;4.73;58.38;100682.69;4943168;28;1839;-95
2022/04/14 06:47:33;;;;;;;;;;;;;;;4.72;58.19;100683.72;4957078;28;1348;-96
2022/04/14 06:49:59;;;;;;;;;;;;;;;4.73;58.38;100687.19;4956367;29;1249;-96
2022/04/14 06:52:26;;;;;;;;;;;;;;;4.72;58.36;100686.38;4950340;29;1919;-96
2022/04/14 06:54:52;;;;;;;;;;;;;;;4.73;58.19;100689.88;4943341;29;2041;-96
2022/04/14 06:57:20;;;;;;;;;;;;;;;4.73;58.28;100692.53;4955946;29;1153;-95
2022/04/14 06:59:46;;;;;;;;;;;;;;;4.73;58.28;100696.03;4943126;29;1230;-96
2022/04/14 07:02:12;;;;;;;;;;;;;;;4.72;58.28;100689.03;4959065;29;1209;-95
2022/04/14 07:04:39;;;;;;;;;;;;;;;4.72;58.23;100693.56;4956911;29;2105;-96
2022/04/14 07:07:05;;;;;;;;;;;;;;;4.72;58.20;100705.06;4950517;29;1217;-95
2022/04/14 07:09:33;;;;;;;;;;;;;;;4.72;58.28;100699.72;4942826;29;1592;-95
2022/04/14 07:12:00;;;;;;;;;;;;;;;4.72;58.13;100709.56;4948297;29;1664;-95
2022/04/14 07:14:27;;;;;;;;;;;;;;;4.72;58.42;100704.22;4943711;29;2121;-96
2022/04/14 07:16:53;;;;;;;;;;;;;;;4.72;58.19;100709.56;4956489;29;1261;-95
2022/04/14 07:19:19;;;;;;;;;;;;;;;4.71;58.29;100713.25;4952710;29;1580;-95
2022/04/14 07:21:46;;;;;;;;;;;;;;;4.71;58.32;100713.25;4955480;29;1302;-95
2022/04/14 07:24:12;;;;;;;;;;;;;;;4.71;58.24;100713.25;4941447;29;1942;-96
2022/04/14 07:26:39;;;;;;;;;;;;;;;4.71;58.16;100722.09;4935199;29;1217;-95
2022/04/14 07:29:05;;;;;;;;;;;;;;;4.71;58.19;100715.91;4958513;28;1360;-96
2022/04/14 07:31:31;;;;;;;;;;;;;;;4.71;58.22;100718.59;4948858;29;2203;-96
2022/04/14 07:33:58;;;;;;;;;;;;;;;4.71;58.15;100716.75;4943085;29;2251;-95
2022/04/14 07:36:24;;;;;;;;;;;;;;;4.71;58.15;100721.25;4948114;29;1904;-95
2022/04/14 07:38:50;;;;;;;;;;;;;;;4.70;58.17;100723.06;4948784;29;2447;-95
2022/04/14 07:41:17;;;;;;;;;;;;;;;4.72;58.15;100721.06;4974439;28;1340;-96
2022/04/14 07:43:43;;;;;;;;;;;;;;;4.71;58.16;100726.59;4954116;29;2167;-96
2022/04/14 07:46:09;;;;;;;;;;;;;;;4.71;58.27;100726.59;4941537;29;1955;-96
2022/04/14 07:48:36;;;;;;;;;;;;;;;4.70;58.38;100728.41;4943071;29;1983;-95
2022/04/14 07:51:03;;;;;;;;;;;;;;;4.71;58.24;100727.41;4938519;29;2005;-96
2022/04/14 07:53:30;;;;;;;;;;;;;;;4.70;58.38;100736.41;4943717;29;2068;-96
2022/04/14 07:55:56;;;;;;;;;;;;;;;4.70;58.20;100739.06;4942589;29;1201;-96
2022/04/14 07:58:23;;;;;;;;;;;;;;;4.70;58.36;100732.91;4958210;28;1969;-96
2022/04/14 08:00:50;;;;;;;;;;;;;;;4.71;58.19;100739.94;4945010;29;2549;-96
2022/04/14 08:03:16;;;;;;;;;;;;;;;4.70;58.25;100743.59;4938497;29;2030;-95
2022/04/14 08:05:43;;;;;;;;;;;;;;;4.70;58.19;100743.59;4957474;29;1193;-96
2022/04/14 08:08:09;;;;;;;;;;;;;;;4.71;58.29;100742.59;4949696;29;1220;-95
2022/04/14 08:10:36;;;;;;;;;;;;;;;4.71;58.22;100748.75;4954609;29;1281;-96
2022/04/14 08:13:02;;;;;;;;;;;;;;;4.71;58.46;100750.59;4935757;29;2154;-95
2022/04/14 08:15:29;;;;;;;;;;;;;;;4.69;58.20;100742.75;4956608;28;4755;-95
2022/04/14 08:17:55;;;;;;;;;;;;;;;4.69;58.41;100750.78;4954360;29;4039;-95
2022/04/14 08:20:21;;;;;;;;;;;;;;;4.70;58.21;100747.09;4944713;29;2595;-96
2022/04/14 08:22:48;;;;;;;;;;;;;;;4.71;58.17;100755.94;4935889;29;2202;-96
2022/04/14 08:25:14;;;;;;;;;;;;;;;4.71;58.15;100755.94;4954219;28;2612;-96
2022/04/14 08:27:41;;;;;;;;;;;;;;;4.70;58.29;100759.59;4962892;28;2037;-95
2022/04/14 08:30:07;;;;;;;;;;;;;;;4.69;58.39;100757.94;4954074;29;1934;-96
2022/04/14 08:32:34;;;;;;;;;;;;;;;4.70;58.12;100760.44;4946134;29;2432;-96
2022/04/14 08:35:00;;;;;;;;;;;;;;;4.70;58.29;100760.44;4943608;29;4394;-95
2022/04/14 08:37:26;;;;;;;;;;;;;;;4.69;58.31;100764.09;4973098;28;1173;-95
2022/04/14 08:39:53;;;;;;;;;;;;;;;4.70;58.04;100762.25;4954091;29;1308;-95
2022/04/14 08:42:19;;;;;;;;;;;;;;;4.70;58.23;100765.75;4941081;29;2089;-95
2022/04/14 08:44:46;;;;;;;;;;;;;;;4.70;58.04;100767.59;4945009;29;1345;-95
2022/04/14 08:47:12;;;;;;;;;;;;;;;4.71;58.11;100769.28;4937981;29;2811;-96
2022/04/14 08:49:38;;;;;;;;;;;;;;;4.70;58.27;100765.75;4946289;29;2029;-95
2022/04/14 08:52:05;;;;;;;;;;;;;;;4.70;58.18;100767.59;4944577;29;2182;-95
2022/04/14 08:54:31;;;;;;;;;;;;;;;4.70;58.24;100759.59;4945424;29;1967;-95
2022/04/14 08:56:58;;;;;;;;;;;;;;;4.70;58.13;100767.59;4950281;29;1620;-95
2022/04/14 08:59:25;;;;;;;;;;;;;;;4.69;58.23;100766.78;4940403;28;1192;-95
2022/04/14 09:01:51;;;;;;;;;;;;;;;4.70;58.20;100767.59;4944450;29;1994;-96
2022/04/14 09:04:18;;;;;;;;;;;;;;;4.70;58.24;100767.59;4978414;28;1206;-95
2022/04/14 09:12:37;;;;;;;;;;;;;;;4.70;58.30;100791.63;5355650;23;2360;-96
2022/04/14 12:14:45;;;;;;;;;;;;;;;4.85;58.29;100912.63;4972555;28;1920;-96
2022/04/14 12:17:16;;;;;;;;;;;;;;;4.86;58.26;100913.47;4961695;29;1597;-96
2022/04/14 12:19:52;;;;;;;;;;;;;;;4.86;58.41;100924.16;4978996;29;1265;-96
2022/04/14 12:22:43;;;;;;;;;;;;;;;4.86;58.26;100919.66;4977242;29;1610;-96
2022/04/14 12:28:07;;;;;;;;;;;;;;;4.87;58.39;100923.97;4977774;29;954;-96
2022/04/14 12:30:36;;;;;;;;;;;;;;;4.86;58.31;100924.16;4976578;29;1866;-96
2022/04/14 12:33:06;;;;;;;;;;;;;;;4.87;58.39;100918.63;4961013;29;1258;-96
2022/04/14 12:38:25;;;;;;;;;;;;;;;4.88;58.32;100922.97;4960092;29;1341;-96
2022/04/14 12:40:57;;;;;;;;;;;;;;;4.89;58.33;100924.63;5155033;23;1712;-96
2022/04/14 12:50:09;;;;;;;;;;;;;;;4.91;58.09;100933.31;4997068;28;652;-96
2022/04/14 12:53:01;;;;;;;;;;;;;;;4.91;58.19;100938.66;4997465;28;711;-96
2022/04/14 12:55:54;;;;;;;;;;;;;;;4.94;58.23;100932.09;4997643;28;616;-96
2022/04/14 12:58:36;;;;;;;;;;;;;;;4.95;58.04;100939.13;4996646;28;1057;-96
2022/04/14 13:09:53;;;;;;;;;;;;;;;4.99;58.16;100951.94;4996385;28;1459;-96
2022/04/14 13:12:21;;;;;;;;;;;;;;;4.99;58.25;100949.28;4994119;28;1182;-96
2022/04/14 13:14:50;;;;;;;;;;;;;;;5.01;58.18;100954.44;4991140;28;1899;-96
2022/04/14 13:17:25;;;;;;;;;;;;;;;5.01;58.22;100957.94;4970488;28;4046;-96
2022/04/14 13:19:56;;;;;;;;;;;;;;;5.03;57.96;100951.59;4958185;29;1349;-96
2022/04/14 13:25:12;;;;;;;;;;;;;;;5.05;58.07;100954.94;4993531;28;1355;-96
2022/04/14 13:27:44;;;;;;;;;;;;;;;5.05;57.96;100962.94;4990526;28;1192;-96
2022/04/14 13:30:11;;;;;;;;;;;;;;;5.05;57.96;100965.59;4971863;28;1274;-96
2022/04/14 13:32:38;;;;;;;;;;;;;;;5.04;58.17;100966.63;4970441;28;1397;-96
2022/04/14 13:35:05;;;;;;;;;;;;;;;5.04;58.42;100971.97;4966286;28;1962;-96
2022/04/14 13:37:32;;;;;;;;;;;;;;;5.03;58.11;100967.59;4967333;28;1590;-96
2022/04/14 13:39:59;;;;;;;;;;;;;;;5.04;58.17;100969.28;4970820;28;1306;-96
2022/04/14 13:42:27;;;;;;;;;;;;;;;5.04;58.21;100978.13;4971558;28;1410;-96
2022/04/14 13:47:31;;;;;;;;;;;;;;;5.05;58.53;100973.63;4990371;28;2597;-96
2022/04/14 13:50:07;;;;;;;;;;;;;;;5.04;58.30;100970.13;4976732;28;1585;-96
2022/04/14 13:52:34;;;;;;;;;;;;;;;5.06;58.30;100969.94;4956715;28;2039;-95
2022/04/14 13:55:00;;;;;;;;;;;;;;;5.06;58.33;100981.47;4969462;28;1907;-95
2022/04/14 13:57:26;;;;;;;;;;;;;;;5.06;58.21;100978.78;4973793;28;1834;-96
2022/04/14 13:59:53;;;;;;;;;;;;;;;5.40;66.55;100981.13;4969322;28;1778;-96
2022/04/14 14:02:19;;;;;;;;;;;;;;;5.25;61.92;100977.53;5000203;28;2028;-96
2022/04/14 14:04:46;;;;;;;;;;;;;;;5.21;62.48;100979.72;4972515;28;1318;-96
2022/04/14 14:07:13;;;;;;;;;;;;;;;5.19;62.49;100989.75;5140073;23;2212;-96
2022/04/14 14:12:20;;;;;;;;;;;;;;;5.19;62.10;101000.41;4957843;29;1353;-96
2022/04/14 14:14:47;;;;;;;;;;;;;;;5.20;62.06;101001.25;4958711;29;1891;-96
2022/04/14 14:17:14;;;;;;;;;;;;;;;5.19;61.71;100991.59;4954850;29;1249;-96
2022/04/14 14:19:41;;;;;;;;;;;;;;;5.19;61.28;100986.25;4954903;29;1312;-96
2022/04/14 14:22:08;;;;;;;;;;;;;;;5.20;61.59;100993.25;4955509;29;1349;-96
2022/04/14 14:24:36;;;;;;;;;;;;;;;5.21;61.23;100997.59;4955824;29;1380;-96
2022/04/14 14:27:02;;;;;;;;;;;;;;;5.21;60.88;101001.09;4972097;28;1242;-96
2022/04/14 14:29:29;;;;;;;;;;;;;;;5.23;60.94;101000.91;4957626;29;2000;-96
2022/04/14 14:31:55;;;;;;;;;;;;;;;5.24;60.52;101010.59;4939860;29;1975;-96
2022/04/14 14:34:23;;;;;;;;;;;;;;;5.24;60.35;101015.94;4955861;29;1957;-96
2022/04/14 14:36:49;;;;;;;;;;;;;;;5.25;60.45;101012.25;4957626;28;2488;-96
2022/04/14 14:39:16;;;;;;;;;;;;;;;5.25;60.10;101020.25;4960096;29;1372;-96
2022/04/14 14:41:42;;;;;;;;;;;;;;;5.27;60.12;101020.09;4959790;29;1336;-96
2022/04/14 14:44:09;;;;;;;;;;;;;;;5.27;60.10;101020.94;4958703;29;1278;-96
2022/04/14 14:46:35;;;;;;;;;;;;;;;5.28;60.14;101022.59;4962120;29;3146;-96
2022/04/14 14:49:02;;;;;;;;;;;;;;;5.29;59.99;101018.06;4952718;29;1400;-96
2022/04/14 14:51:29;;;;;;;;;;;;;;;5.29;60.21;101015.41;4938614;29;1382;-96
2022/04/14 14:53:55;;;;;;;;;;;;;;;5.30;59.71;101011.75;4956952;28;1910;-96
2022/04/14 14:56:22;;;;;;;;;;;;;;;5.29;59.74;101021.56;4955638;28;2401;-96
2022/04/14 15:01:32;;;;;;;;;;;;;;;5.30;59.80;101023.25;4945328;29;1232;-96
2022/04/14 15:04:00;;;;;;;;;;;;;;;5.32;59.82;101034.56;4959499;29;1179;-96
2022/04/14 15:06:27;;;;;;;;;;;;;;;5.32;59.66;101031.91;4958129;28;2213;-96
2022/04/14 15:08:54;;;;;;;;;;;;;;;5.33;59.67;101035.44;4957061;29;1234;-96
2022/04/14 15:11:21;;;;;;;;;;;;;;;5.33;59.89;101033.59;4963189;29;1453;-96
2022/04/14 15:13:48;;;;;;;;;;;;;;;5.33;59.68;101030.91;4959981;29;1854;-96
2022/04/14 15:16:14;;;;;;;;;;;;;;;5.33;59.70;101030.91;4962066;29;1403;-96
2022/04/14 15:18:41;;;;;;;;;;;;;;;5.35;59.84;101039.56;4965837;29;1813;-96
2022/04/14 15:21:07;;;;;;;;;;;;;;;5.35;59.67;101036.06;4951659;28;1273;-96
2022/04/14 15:23:33;;;;;;;;;;;;;;;5.36;59.67;101038.59;4956988;29;2031;-96
2022/04/14 15:26:00;;;;;;;;;;;;;;;5.36;59.70;101043.09;4967693;29;1281;-96
2022/04/14 15:28:30;;;;;;;;;;;;;;;5.36;59.49;101043.94;4964739;29;1179;-96
2022/04/14 15:30:56;;;;;;;;;;;;;;;5.37;59.50;101055.44;4962629;29;1275;-96
2022/04/14 15:33:28;;;;;;;;;;;;;;;5.38;59.52;101054.41;4970891;29;1425;-96
2022/04/14 15:35:55;;;;;;;;;;;;;;;5.38;59.54;101054.41;4967058;28;2257;-96
2022/04/14 15:41:45;;;;;;;;;;;;;;;5.39;59.63;101056.09;4957173;28;1881;-96
2022/04/14 15:44:12;;;;;;;;;;;;;;;5.39;59.62;101064.94;4960874;29;1493;-96
2022/04/14 15:46:38;;;;;;;;;;;;;;;5.39;59.60;101066.78;4958932;29;2285;-96
2022/04/14 15:49:05;;;;;;;;;;;;;;;5.40;59.65;101071.13;4957147;29;1363;-96
2022/04/14 15:51:33;;;;;;;;;;;;;;;5.40;59.66;101074.63;4953193;29;2085;-96
2022/04/14 15:54:00;;;;;;;;;;;;;;;5.42;59.60;101082.47;4962119;29;1985;-96
2022/04/14 15:56:27;;;;;;;;;;;;;;;5.42;59.62;101079.81;4959781;29;1505;-96
2022/04/14 15:58:53;;;;;;;;;;;;;;;5.42;59.69;101085.16;4958696;29;1851;-96
2022/04/14 16:01:19;;;;;;;;;;;;;;;5.42;59.57;101091.31;4958165;29;1713;-96
2022/04/14 16:03:46;;;;;;;;;;;;;;;5.42;59.55;101093.16;4968833;28;1365;-96
2022/04/14 16:06:14;;;;;;;;;;;;;;;5.44;59.42;101101.81;4985507;28;1426;-96
2022/04/14 16:08:40;;;;;;;;;;;;;;;5.43;59.51;101098.31;4963241;28;2112;-96
2022/04/14 16:13:51;;;;;;;;;;;;;;;5.44;59.73;101116.03;4958453;29;2083;-96
2022/04/14 16:16:20;;;;;;;;;;;;;;;5.44;59.56;101116.03;4965878;29;1902;-96
2022/04/14 16:18:46;;;;;;;;;;;;;;;5.45;59.77;101114.19;4965932;29;1370;-96
2022/04/14 16:21:13;;;;;;;;;;;;;;;5.45;59.79;101124.88;4959075;29;2205;-96
2022/04/14 16:23:39;;;;;;;;;;;;;;;5.45;59.70;101123.03;4960593;29;1802;-96
2022/04/14 16:26:06;;;;;;;;;;;;;;;5.47;59.56;101128.19;4963274;29;1885;-96
2022/04/14 16:28:33;;;;;;;;;;;;;;;5.47;59.73;101133.53;4967005;29;1282;-96
2022/04/14 16:31:00;;;;;;;;;;;;;;;5.47;59.60;101130.84;4964018;28;875;-96
2022/04/14 16:33:27;;;;;;;;;;;;;;;5.47;60.06;101134.38;4963172;29;1318;-96
2022/04/14 16:35:53;;;;;;;;;;;;;;;5.49;59.85;101139.53;4965696;29;1914;-96
2022/04/14 16:38:20;;;;;;;;;;;;;;;5.48;59.79;101135.22;4953973;29;2152;-96
2022/04/14 16:40:47;;;;;;;;;;;;;;;5.50;59.64;101149.25;4952990;29;1351;-96